Time;durP1;ratioP1;P1;durP2;ratioP2;P2;SDS_P1;SDS_P2;PMS_P1;PMS_P2;Temp;Humidity;BMP_temperature;BMP_pressure;BME280_temperature;BME280_humidity;BME280_pressure;Samples;Min_cycle;Max_cycle;Signal;HPM_P1;HPM_P2
2022/06/20 00:00:30;;;;;;;4.35;3.33;;;;;;;20.44;77.17;152791.41;1733675;82;21082;-62
2022/06/20 00:03:02;;;;;;;6.25;3.27;;;;;;;20.41;77.26;152784.91;1759868;80;22183;-61
2022/06/20 00:05:29;;;;;;;3.98;3.35;;;;;;;20.38;77.69;152775.75;1733106;82;21034;-62
2022/06/20 00:07:57;;;;;;;5.15;3.08;;;;;;;20.37;77.98;152773.14;1760249;81;20979;-62
2022/06/20 00:10:28;;;;;;;5.08;3.30;;;;;;;20.38;78.13;152777.08;1733866;82;20975;-62
2022/06/20 00:12:55;;;;;;;3.70;3.30;;;;;;;20.37;77.95;152773.14;1759932;80;20908;-62
2022/06/20 00:15:31;;;;;;;5.03;3.40;;;;;;;20.30;78.07;152756.14;1732290;81;21235;-62
2022/06/20 00:18:00;;;;;;;6.10;3.40;;;;;;;20.25;78.44;152744.42;1759489;80;21046;-61
2022/06/20 00:20:28;;;;;;;3.98;3.47;;;;;;;20.28;78.77;152752.25;1733934;81;21050;-62
2022/06/20 00:22:56;;;;;;;6.00;4.08;;;;;;;20.31;78.40;152760.09;1759826;80;20952;-62
2022/06/20 00:25:25;;;;;;;5.30;3.65;;;;;;;20.26;78.54;152747.03;1733561;82;21021;-62
2022/06/20 00:27:53;;;;;;;5.92;3.58;;;;;;;20.21;78.71;152733.94;1759769;80;21228;-62
2022/06/20 00:30:21;;;;;;;5.30;3.58;;;;;;;20.18;78.93;152726.09;1733960;82;20983;-62
2022/06/20 00:32:48;;;;;;;4.12;3.58;;;;;;;20.15;79.09;152718.28;1759655;80;20965;-61
2022/06/20 00:35:16;;;;;;;7.20;3.55;;;;;;;20.09;79.33;152702.61;1732443;82;21031;-62
2022/06/20 00:37:44;;;;;;;5.45;3.75;;;;;;;20.02;79.62;152686.95;1754690;80;21110;-62
2022/06/20 00:40:43;;;;;;;4.58;3.83;;;;;;;19.98;80.20;152676.47;1754280;80;21271;-62
2022/06/20 00:43:14;;;;;;;3.98;3.52;;;;;;;19.98;80.39;152676.47;1753607;80;21103;-62
2022/06/20 00:45:44;;;;;;;3.58;3.27;;;;;;;19.96;80.61;152671.25;1753350;81;21039;-62
2022/06/20 00:48:17;;;;;;;4.00;3.40;;;;;;;19.92;80.65;152659.53;1754090;80;21069;-62
2022/06/20 00:50:44;;;;;;;5.53;3.87;;;;;;;19.88;80.90;152650.31;1705659;83;22605;-62
2022/06/20 00:53:44;;;;;;;4.65;4.15;;;;;;;19.85;81.12;152643.77;1675774;85;22148;-62
2022/06/20 00:56:31;;;;;;;5.45;3.65;;;;;;;19.80;81.05;152629.44;1705705;83;21483;-62
2022/06/20 00:59:07;;;;;;;8.53;4.20;;;;;;;19.67;81.34;152596.75;1702364;83;20995;-62
2022/06/20 01:01:38;;;;;;;5.28;4.05;;;;;;;19.58;81.69;152574.59;1705771;82;21004;-61
2022/06/20 01:04:28;;;;;;;4.97;4.20;;;;;;;19.49;82.09;152551.06;1675995;85;21136;-62
2022/06/20 01:06:56;;;;;;;6.20;3.75;;;;;;;19.39;82.39;152527.59;1675797;85;21256;-62
2022/06/20 01:09:29;;;;;;;3.77;3.47;;;;;;;19.29;82.98;152502.78;1705823;83;20986;-62
2022/06/20 01:11:58;;;;;;;4.00;3.50;;;;;;;19.27;83.28;152496.23;1675878;84;21548;-62
2022/06/20 01:14:34;;;;;;;3.35;3.10;;;;;;;19.23;83.31;152487.13;1705705;82;20955;-63
2022/06/20 01:17:11;;;;;;;4.72;3.35;;;;;;;19.24;83.29;152488.41;1675971;84;21099;-62
2022/06/20 01:19:53;;;;;;;4.80;3.67;;;;;;;19.29;83.13;152501.45;1667001;84;21866;-62
2022/06/20 01:22:56;;;;;;;5.95;3.60;;;;;;;19.33;82.64;152513.22;1659923;85;21522;-62
2022/06/20 01:26:11;;;;;;;4.60;3.35;;;;;;;19.32;82.18;152510.61;1675791;84;21067;-62
2022/06/20 01:28:40;;;;;;;3.58;3.27;;;;;;;19.27;82.25;152496.23;1675981;84;20984;-63
2022/06/20 01:31:09;;;;;;;4.10;3.20;;;;;;;19.27;82.41;152497.56;1705652;83;21063;-63
2022/06/20 01:33:37;;;;;;;4.97;3.30;;;;;;;19.27;82.26;152496.23;1675921;84;20900;-63
2022/06/20 01:38:50;;;;;;;4.37;3.58;;;;;;;19.27;82.70;152496.23;1762843;81;21059;-62
2022/06/20 01:44:04;;;;;;;4.37;3.60;;;;;;;19.26;82.54;152493.63;1762974;80;21090;-63
2022/06/20 01:46:34;;;;;;;3.95;3.47;;;;;;;19.18;82.94;152474.03;1739288;81;21549;-63
2022/06/20 01:49:05;;;;;;;4.95;3.65;;;;;;;19.18;83.30;152475.38;1762738;81;21011;-63
2022/06/20 01:51:37;;;;;;;3.90;3.30;;;;;;;19.19;83.17;152476.64;1739703;81;21054;-63
2022/06/20 01:54:04;;;;;;;6.12;3.65;;;;;;;19.15;83.35;152466.22;1762787;80;21027;-62
2022/06/20 01:56:31;;;;;;;4.00;3.33;;;;;;;19.11;83.61;152457.06;1739373;82;21019;-62
2022/06/20 01:59:06;;;;;;;3.83;3.15;;;;;;;19.12;83.75;152459.72;1762815;80;21401;-62
2022/06/20 02:01:34;;;;;;;6.65;3.90;;;;;;;19.11;83.81;152457.06;1739688;81;21038;-63
2022/06/20 02:04:03;;;;;;;4.78;3.67;;;;;;;19.13;84.04;152461.00;1746033;81;20996;-61
2022/06/20 02:06:31;;;;;;;3.70;3.27;;;;;;;19.16;84.12;152468.83;1745116;80;21065;-63
2022/06/20 02:08:59;;;;;;;4.17;3.58;;;;;;;19.17;84.21;152472.77;1762749;81;21031;-63
2022/06/20 02:11:31;;;;;;;4.85;3.67;;;;;;;19.16;84.43;152470.16;1739311;81;21570;-63
2022/06/20 02:14:03;;;;;;;5.15;3.60;;;;;;;19.14;84.80;152464.94;1762750;80;20981;-62
2022/06/20 02:16:34;;;;;;;3.40;3.05;;;;;;;19.20;85.16;152477.97;1739377;82;20997;-62
2022/06/20 02:19:04;;;;;;;5.80;3.80;;;;;;;19.27;84.87;152496.23;1762765;81;21015;-62
2022/06/20 02:21:33;;;;;;;3.62;3.33;;;;;;;19.28;84.63;152498.84;1739814;81;21066;-62
2022/06/20 02:24:08;;;;;;;3.98;3.47;;;;;;;19.30;84.64;152504.06;1762612;80;21852;-62
2022/06/20 02:26:37;;;;;;;6.40;3.58;;;;;;;19.40;84.63;152530.20;1739988;82;20978;-62
2022/06/20 02:29:23;;;;;;;4.65;3.37;;;;;;;19.53;84.35;152562.84;1762773;81;21490;-62
2022/06/20 02:32:13;;;;;;;3.87;3.45;;;;;;;19.66;84.13;152594.14;1762648;80;21043;-63
2022/06/20 02:34:41;;;;;;;3.52;3.22;;;;;;;19.87;83.81;152647.70;1762790;80;20984;-62
2022/06/20 02:37:13;;;;;;;4.58;3.37;;;;;;;20.02;83.32;152685.62;1726177;82;21298;-62
2022/06/20 02:39:43;;;;;;;3.65;3.33;;;;;;;20.12;82.72;152710.44;1705572;84;21039;-63
2022/06/20 02:42:20;;;;;;;5.95;3.60;;;;;;;20.15;82.35;152718.28;1665907;84;21058;-64
2022/06/20 02:44:47;;;;;;;5.12;3.72;;;;;;;20.19;81.98;152728.72;1705656;82;21039;-62
2022/06/20 02:47:14;;;;;;;4.33;3.77;;;;;;;20.18;81.62;152726.09;1719544;83;21070;-62
2022/06/20 02:49:43;;;;;;;3.67;3.37;;;;;;;20.13;81.55;152713.05;1675996;84;21031;-63
2022/06/20 02:52:14;;;;;;;3.77;3.45;;;;;;;20.12;81.57;152711.77;1695698;83;21035;-62
2022/06/20 02:54:41;;;;;;;8.70;3.83;;;;;;;20.13;81.39;152713.05;1705839;84;21552;-63
2022/06/20 02:57:16;;;;;;;3.50;3.20;;;;;;;20.09;81.08;152702.61;1675668;84;21027;-62
2022/06/20 02:59:50;;;;;;;3.87;3.20;;;;;;;20.07;81.01;152698.67;1705790;83;21022;-62
2022/06/20 03:02:20;;;;;;;11.57;3.75;;;;;;;20.07;80.97;152697.39;1676016;84;21964;-62
2022/06/20 03:04:48;;;;;;;6.37;3.72;;;;;;;20.09;80.73;152702.61;1705968;82;20999;-62
2022/06/20 03:07:24;;;;;;;3.77;3.37;;;;;;;20.08;80.51;152700.00;1675845;84;21114;-63
2022/06/20 03:10:02;;;;;;;4.67;3.80;;;;;;;20.09;80.57;152702.61;1705982;83;21067;-63
2022/06/20 03:12:31;;;;;;;4.75;3.33;;;;;;;20.12;80.41;152711.77;1696637;82;21063;-63
2022/06/20 03:15:00;;;;;;;6.78;3.87;;;;;;;20.13;80.27;152713.05;1676056;84;21036;-63
2022/06/20 03:17:27;;;;;;;5.35;3.77;;;;;;;20.14;80.16;152715.66;1705817;83;21014;-63
2022/06/20 03:19:58;;;;;;;6.53;3.72;;;;;;;20.16;80.29;152720.88;1675897;85;21043;-63
2022/06/20 03:22:35;;;;;;;3.85;3.55;;;;;;;20.21;80.18;152733.94;1705490;83;21023;-63
2022/06/20 03:25:03;;;;;;;6.05;3.62;;;;;;;20.29;79.97;152753.53;1705870;84;21023;-62
2022/06/20 03:27:33;;;;;;;5.55;3.80;;;;;;;20.39;79.55;152778.36;1675873;85;21276;-63
2022/06/20 03:30:29;;;;;;;5.60;3.50;;;;;;;20.41;79.32;152783.58;1706057;82;21460;-62
2022/06/20 03:32:58;;;;;;;4.92;3.77;;;;;;;20.45;79.18;152794.06;1706121;83;21086;-63
2022/06/20 03:35:30;;;;;;;5.80;3.52;;;;;;;20.52;78.92;152811.00;1676042;84;21059;-63
2022/06/20 03:38:01;;;;;;;5.15;3.65;;;;;;;20.58;78.79;152828.00;1721702;82;21066;-63
2022/06/20 03:40:28;;;;;;;4.10;3.30;;;;;;;20.70;78.56;152858.06;1759846;80;21114;-63
2022/06/20 03:42:56;;;;;;;5.97;3.12;;;;;;;20.83;78.21;152890.77;1733309;82;21084;-63
2022/06/20 03:45:24;;;;;;;8.58;3.35;;;;;;;20.97;77.96;152926.03;1759682;80;21031;-63
2022/06/20 03:47:56;;;;;;;5.62;3.80;;;;;;;21.16;77.42;152973.09;1732688;81;21003;-63
2022/06/20 03:50:35;;;;;;;6.95;3.22;;;;;;;21.28;76.95;153003.16;1759721;81;21040;-64
2022/06/20 03:53:41;;;;;;;8.18;3.42;;;;;;;21.35;76.52;153021.50;1760215;81;21873;-63
2022/06/20 03:56:34;;;;;;;8.73;3.33;;;;;;;21.46;76.16;153050.22;1733957;82;21019;-62
2022/06/20 03:59:14;;;;;;;6.92;3.33;;;;;;;21.56;75.93;153073.78;1759479;80;21036;-63
2022/06/20 04:01:52;;;;;;;11.18;3.50;;;;;;;21.63;75.76;153090.73;1733481;81;20999;-63
2022/06/20 04:04:28;;;;;;;8.33;3.58;;;;;;;21.77;75.56;153126.08;1706921;81;21032;-61
2022/06/20 04:07:01;;;;;;;;;;;;;;;21.91;75.08;153161.44;1736358;82;21078;-62
2022/06/20 04:12:48;;;;;;;5.67;3.40;;;;;;;22.16;74.33;153225.47;1733707;82;21583;-63
2022/06/20 04:15:20;;;;;;;4.10;3.00;;;;;;;22.34;73.81;153271.28;1759667;80;21556;-62
2022/06/20 04:20:52;;;;;;;5.08;2.90;;;;;;;22.65;72.29;153348.47;1759971;81;21181;-62
2022/06/20 04:23:30;;;;;;;7.53;3.12;;;;;;;22.77;71.66;153379.88;1759819;81;21051;-62
2022/06/20 04:26:35;;;;;;;3.50;3.05;;;;;;;22.87;71.01;153406.02;1757463;81;20972;-62
2022/06/20 04:29:11;;;;;;;7.85;3.08;;;;;;;22.99;70.50;153434.83;1733043;82;21496;-62
2022/06/20 04:31:52;;;;;;;7.90;3.20;;;;;;;23.11;69.26;153466.25;1759602;81;21011;-63
2022/06/20 04:34:34;;;;;;;13.93;3.22;;;;;;;23.23;68.81;153496.34;1759364;81;21256;-63
2022/06/20 04:37:29;;;;;;;6.78;2.85;;;;;;;23.33;68.01;153521.27;1733835;82;21484;-62
2022/06/20 04:40:13;;;;;;;12.88;2.85;;;;;;;23.42;66.02;153544.81;1759995;81;21074;-62
2022/06/20 04:43:08;;;;;;;9.58;3.25;;;;;;;23.53;65.42;153572.28;1759312;81;21009;-62
2022/06/20 04:46:02;;;;;;;6.75;4.03;;;;;;;23.68;64.29;153608.97;1733581;81;21033;-63
2022/06/20 04:48:30;;;;;;;4.97;3.87;;;;;;;23.84;64.80;153650.81;1759460;80;21248;-62
2022/06/20 04:51:03;;;;;;;4.42;3.50;;;;;;;23.96;64.82;153680.92;1734428;82;21003;-63
2022/06/20 04:53:33;;;;;;;6.62;3.95;;;;;;;24.06;63.00;153704.56;1759589;80;21049;-62
2022/06/20 04:56:04;;;;;;;5.28;4.00;;;;;;;24.15;64.40;153729.44;1733295;82;21011;-63
2022/06/20 04:58:41;;;;;;;10.15;3.75;;;;;;;24.27;64.77;153759.56;1759495;81;20983;-62
2022/06/20 05:01:09;;;;;;;3.80;3.08;;;;;;;24.41;64.22;153793.56;1733684;82;21539;-62
2022/06/20 05:03:40;;;;;;;5.08;3.12;;;;;;;24.57;60.23;153835.48;1759397;80;21115;-62
2022/06/20 05:06:09;;;;;;;5.80;3.27;;;;;;;24.70;59.64;153866.95;1760211;80;21528;-62
2022/06/20 05:08:40;;;;;;;4.08;3.40;;;;;;;24.83;57.54;153899.73;1738869;82;21049;-62
2022/06/20 05:11:18;;;;;;;6.35;3.87;;;;;;;24.91;59.33;153920.67;1759832;81;21422;-63
2022/06/20 05:13:49;;;;;;;6.53;3.98;;;;;;;24.99;59.81;153940.33;1734007;82;21834;-63
2022/06/20 05:16:21;;;;;;;6.15;3.10;;;;;;;25.10;58.88;153969.17;1759618;81;21008;-62
2022/06/20 05:18:57;;;;;;;3.58;2.70;;;;;;;25.18;57.87;153990.13;1732696;82;21054;-64
2022/06/20 05:21:34;;;;;;;4.22;3.17;;;;;;;25.28;56.79;154013.69;1759855;81;21012;-63
2022/06/20 05:24:12;;;;;;;3.67;2.83;;;;;;;25.36;56.35;154034.67;1733721;82;20974;-62
2022/06/20 05:26:42;;;;;;;4.90;1.98;;;;;;;25.47;56.04;154062.25;1738138;81;21471;-62
2022/06/20 05:29:32;;;;;;;5.42;2.10;;;;;;;25.57;52.84;154087.14;1732606;82;21526;-62
2022/06/20 05:32:04;;;;;;;7.17;2.62;;;;;;;25.66;50.52;154110.70;1759232;81;21051;-62
2022/06/20 05:34:51;;;;;;;6.35;2.25;;;;;;;25.78;49.04;154139.56;1733509;82;21042;-63
2022/06/20 05:37:27;;;;;;;3.02;1.72;;;;;;;25.89;48.46;154168.37;1759640;81;20997;-63
2022/06/20 05:39:59;;;;;;;3.30;1.82;;;;;;;25.98;47.58;154192.00;1759685;81;21243;-63
2022/06/20 05:42:26;;;;;;;5.28;1.87;;;;;;;26.07;47.18;154212.95;1733231;82;21062;-63
2022/06/20 05:44:54;;;;;;;2.33;2.12;;;;;;;26.15;46.56;154235.23;1759832;80;21004;-63
2022/06/20 05:47:32;;;;;;;2.85;2.42;;;;;;;26.26;48.04;154262.81;1732458;82;21424;-63
2022/06/20 05:50:16;;;;;;;4.58;2.80;;;;;;;26.38;48.68;154291.63;1759411;81;21016;-62
2022/06/20 05:52:43;;;;;;;;;;;;;;;26.50;48.42;154323.12;1762175;81;21180;-63
2022/06/20 05:55:21;;;;;;;2.87;2.40;;;;;;;26.63;48.18;154354.56;1759560;81;20446;-62
2022/06/20 05:57:48;;;;;;;2.42;2.20;;;;;;;26.72;47.68;154378.19;1731827;82;21025;-62
2022/06/20 06:00:22;;;;;;;5.28;2.42;;;;;;;26.78;47.48;154393.91;1759739;81;21008;-63
2022/06/20 06:03:04;;;;;;;4.72;2.20;;;;;;;26.84;46.97;154409.64;1732125;81;21002;-63
2022/06/20 06:05:37;;;;;;;3.33;2.20;;;;;;;26.90;46.46;154424.13;1701693;83;21854;-63
2022/06/20 06:08:21;;;;;;;5.33;2.30;;;;;;;27.01;46.39;154451.66;1759750;80;21482;-63
2022/06/20 06:11:19;;;;;;;;;;;;;;;27.11;45.88;154477.91;1747928;81;20981;-63
2022/06/20 06:14:04;;;;;;;7.53;2.40;;;;;;;27.24;45.78;154509.38;1727607;81;20159;-63
2022/06/20 06:16:48;;;;;;;2.47;2.17;;;;;;;27.38;45.69;154544.78;1727008;83;21490;-63
2022/06/20 06:19:43;;;;;;;3.62;2.27;;;;;;;27.49;45.53;154573.66;1727139;81;21137;-63
2022/06/20 06:22:15;;;;;;;2.85;2.55;;;;;;;27.63;46.71;154607.78;1727071;83;20993;-63
2022/06/20 06:24:44;;;;;;;3.92;2.47;;;;;;;27.74;47.52;154638.02;1725981;81;21499;-63
2022/06/20 06:27:22;;;;;;;6.92;2.50;;;;;;;27.82;47.41;154656.36;1726803;83;21029;-62
2022/06/20 06:30:00;;;;;;;5.55;2.37;;;;;;;27.89;46.71;154674.72;1727087;81;20989;-62
2022/06/20 06:32:47;;;;;;;3.05;2.72;;;;;;;27.97;45.91;154694.41;1728937;81;22149;-62
2022/06/20 06:35:23;;;;;;;4.25;2.80;;;;;;;28.02;46.36;154707.52;1723564;82;21032;-63
2022/06/20 06:38:03;;;;;;;5.80;2.70;;;;;;;28.06;47.09;154718.00;1729005;81;21088;-62
2022/06/20 06:40:42;;;;;;;2.90;2.58;;;;;;;28.12;47.27;154732.45;1690880;82;21531;-63
2022/06/20 06:43:37;;;;;;;4.20;2.50;;;;;;;28.13;46.70;154736.41;1762006;81;21087;-63
2022/06/20 06:46:01;;;;;;;4.85;2.37;;;;;;;28.14;46.63;154737.69;1760868;81;20999;-62
2022/06/20 06:48:48;;;;;;;4.45;2.70;;;;;;;28.11;47.04;154729.83;1761747;80;21441;-63
2022/06/20 06:51:23;;;;;;;3.42;2.40;;;;;;;28.14;47.14;154739.03;1756376;81;21024;-62
2022/06/20 06:54:01;;;;;;;3.33;2.58;;;;;;;28.19;47.38;154749.56;1707566;82;21446;-63
2022/06/20 06:56:38;;;;;;;3.35;2.90;;;;;;;28.18;46.82;154748.23;1658920;85;20992;-63
2022/06/20 06:59:12;;;;;;;3.92;2.77;;;;;;;28.16;46.94;154742.98;1701881;84;21322;-62
2022/06/20 07:01:44;;;;;;;3.58;2.60;;;;;;;28.15;46.80;154740.31;1702349;84;21032;-63
2022/06/20 07:04:22;;;;;;;7.80;2.42;;;;;;;28.15;46.83;154740.31;1691862;84;21126;-63
2022/06/20 07:07:04;;;;;;;5.35;2.50;;;;;;;28.16;46.26;154744.33;1702606;83;21058;-63
2022/06/20 07:09:36;;;;;;;3.77;2.62;;;;;;;28.14;46.37;154737.69;1716072;82;21091;-63
2022/06/20 07:12:30;;;;;;;5.60;2.80;;;;;;;28.16;46.20;154742.98;1716102;83;23246;-63
2022/06/20 07:15:18;;;;;;;2.75;2.20;;;;;;;28.15;45.95;154741.70;1717338;82;20964;-62
2022/06/20 07:18:12;;;;;;;2.50;2.20;;;;;;;28.13;45.96;154735.06;1720752;82;21566;-63
2022/06/20 07:20:41;;;;;;;3.12;2.33;;;;;;;28.11;46.21;154731.16;1726543;82;21012;-64
2022/06/20 07:23:14;;;;;;;9.65;2.70;;;;;;;28.10;46.00;154727.20;1731873;82;21458;-63
2022/06/20 07:25:43;;;;;;;3.75;2.35;;;;;;;28.11;45.89;154729.83;1731424;82;21494;-63
2022/06/20 07:28:37;;;;;;;2.72;2.30;;;;;;;28.14;45.93;154737.69;1715151;82;21052;-63
2022/06/20 07:31:33;;;;;;;4.00;2.15;;;;;;;28.15;45.94;154740.31;1730143;83;21084;-62
2022/06/20 07:34:23;;;;;;;3.22;2.25;;;;;;;28.20;45.88;154752.19;1729997;82;21329;-63
2022/06/20 07:36:55;;;;;;;3.02;1.98;;;;;;;28.22;46.12;154758.78;1717362;82;21495;-63
2022/06/20 07:39:33;;;;;;;1.98;1.87;;;;;;;28.22;45.85;154758.78;1683918;84;21959;-64
2022/06/20 07:42:14;;;;;;;2.70;2.20;;;;;;;28.26;45.88;154767.94;1657861;86;21022;-63
2022/06/20 07:44:47;;;;;;;5.62;2.42;;;;;;;28.27;45.44;154770.55;1704506;83;20991;-63
2022/06/20 07:47:18;;;;;;;4.22;2.42;;;;;;;28.27;45.52;154771.89;1717452;83;21090;-63
2022/06/20 07:49:54;;;;;;;3.52;2.30;;;;;;;28.26;45.67;154769.27;1717289;83;21049;-64
2022/06/20 07:52:32;;;;;;;4.25;2.25;;;;;;;28.26;45.72;154767.94;1717478;83;21815;-63
2022/06/20 07:55:03;;;;;;;3.33;2.22;;;;;;;28.28;46.10;154774.50;1717320;83;21035;-62
2022/06/20 07:57:42;;;;;;;2.72;1.95;;;;;;;28.29;45.59;154777.12;1714442;83;21090;-63
2022/06/20 08:00:22;;;;;;;2.20;2.00;;;;;;;28.25;45.04;154766.64;1742039;82;21035;-63
2022/06/20 08:02:58;;;;;;;3.47;1.87;;;;;;;28.25;45.24;154766.64;1742250;82;21075;-63
2022/06/20 08:05:30;;;;;;;4.22;2.30;;;;;;;28.27;45.42;154770.55;1710660;82;21253;-64
2022/06/20 08:08:08;;;;;;;3.70;2.25;;;;;;;28.28;45.54;154774.50;1713856;83;21613;-63
2022/06/20 08:10:41;;;;;;;3.50;2.10;;;;;;;28.33;45.47;154786.34;1735470;81;21028;-63
2022/06/20 08:13:41;;;;;;;3.77;2.27;;;;;;;28.38;45.91;154798.11;1742881;82;21001;-63
2022/06/20 08:16:16;;;;;;;2.90;1.90;;;;;;;28.41;46.17;154806.03;1716768;83;21008;-63
2022/06/20 08:18:43;;;;;;;2.58;2.10;;;;;;;28.41;46.21;154807.31;1717210;83;21221;-63
2022/06/20 08:21:24;;;;;;;3.62;2.12;;;;;;;28.41;46.63;154807.31;1717150;83;21035;-63
2022/06/20 08:23:56;;;;;;;3.70;2.20;;;;;;;28.44;46.69;154813.89;1717176;82;20999;-63
2022/06/20 08:26:29;;;;;;;3.47;2.50;;;;;;;28.44;46.56;154815.19;1716541;82;21051;-63
2022/06/20 08:28:59;;;;;;;2.63;1.93;;;;;;;28.44;46.66;154815.19;1717498;83;21027;-63
2022/06/20 08:31:35;;;;;;;2.40;2.20;;;;;;;28.44;46.36;154813.89;1716964;83;20967;-63
2022/06/20 08:34:25;;;;;;;2.65;1.90;;;;;;;28.39;46.32;154800.73;1717095;83;21067;-62
2022/06/20 08:37:07;;;;;;;4.87;2.20;;;;;;;28.35;46.08;154790.25;1717291;83;21070;-63
2022/06/20 08:39:48;;;;;;;3.85;2.42;;;;;;;28.28;46.22;154774.50;1703433;83;21017;-63
2022/06/20 08:42:48;;;;;;;2.20;2.00;;;;;;;28.29;46.66;154777.12;1693235;83;21008;-63
2022/06/20 08:45:27;;;;;;;2.37;1.82;;;;;;;28.30;46.44;154778.47;1692171;84;22077;-63
2022/06/20 08:48:30;;;;;;;5.55;1.82;;;;;;;28.27;46.22;154771.89;1692215;84;21044;-62
2022/06/20 08:51:39;;;;;;;2.83;1.92;;;;;;;28.23;45.29;154761.39;1694052;83;21117;-62
2022/06/20 08:55:02;;;;;;;1.82;1.65;;;;;;;28.21;45.27;154756.16;1688905;83;21012;-62
2022/06/20 08:57:53;;;;;;;2.75;1.85;;;;;;;28.19;43.40;154750.91;1693572;83;21001;-64
2022/06/20 09:01:01;;;;;;;3.65;1.65;;;;;;;28.19;43.95;154750.91;1693757;84;21161;-63
2022/06/20 09:03:46;;;;;;;2.12;1.70;;;;;;;28.20;43.86;154753.53;1693120;84;21106;-63
2022/06/20 09:06:38;;;;;;;1.77;1.60;;;;;;;28.17;43.25;154745.61;1671391;84;28344;-64
2022/06/20 09:09:31;;;;;;;5.22;1.60;;;;;;;28.13;42.92;154735.06;1642636;86;21033;-63
2022/06/20 09:12:13;;;;;;;1.80;1.60;;;;;;;28.11;42.74;154729.83;1692477;84;21071;-64
2022/06/20 09:15:07;;;;;;;2.45;1.57;;;;;;;28.09;42.76;154725.92;1686012;84;21137;-63
2022/06/20 09:18:07;;;;;;;1.92;1.55;;;;;;;28.07;42.65;154719.34;1704321;84;21465;-63
2022/06/20 09:20:48;;;;;;;2.37;1.50;;;;;;;28.06;42.93;154716.72;1702915;84;21048;-63
2022/06/20 09:23:57;;;;;;;2.85;1.30;;;;;;;28.07;42.95;154719.34;1686302;85;21111;-64
2022/06/20 09:26:36;;;;;;;1.60;1.42;;;;;;;28.09;42.43;154725.92;1653753;86;21228;-62
2022/06/20 09:29:08;;;;;;;3.27;1.62;;;;;;;28.14;42.47;154737.69;1661609;85;21849;-64
2022/06/20 09:32:13;;;;;;;2.87;1.50;;;;;;;28.12;41.99;154733.78;1655377;84;20999;-63
2022/06/20 09:35:30;;;;;;;3.00;1.80;;;;;;;28.09;42.08;154724.58;1657873;84;21067;-63
2022/06/20 09:38:05;;;;;;;1.70;1.60;;;;;;;28.03;42.21;154711.47;1656760;85;21088;-62
2022/06/20 09:41:07;;;;;;;2.08;1.60;;;;;;;27.96;42.10;154693.06;1682053;83;21064;-63
2022/06/20 09:43:42;;;;;;;2.42;1.50;;;;;;;27.93;41.82;154685.20;1642279;84;21578;-62
2022/06/20 09:46:23;;;;;;;1.40;1.30;;;;;;;27.96;41.96;154693.06;1681667;85;21012;-64
2022/06/20 09:49:02;;;;;;;1.67;1.50;;;;;;;27.95;42.29;154690.44;1657076;84;21137;-63
2022/06/20 09:51:43;;;;;;;1.70;1.30;;;;;;;27.93;42.67;154685.20;1656672;85;21102;-62
2022/06/20 09:54:21;;;;;;;4.03;1.70;;;;;;;27.87;42.67;154669.47;1680775;84;20981;-63
2022/06/20 09:56:58;;;;;;;2.35;1.62;;;;;;;27.82;43.12;154657.66;1660232;86;21536;-62
2022/06/20 09:59:55;;;;;;;3.15;1.40;;;;;;;27.83;43.42;154660.27;1669728;85;21510;-62
2022/06/20 10:02:39;;;;;;;2.22;1.67;;;;;;;27.82;43.02;154656.36;1644951;85;21029;-64
2022/06/20 10:05:28;;;;;;;1.60;1.50;;;;;;;27.81;42.73;154653.75;1633618;85;21111;-57
2022/06/20 10:08:10;;;;;;;2.47;1.25;;;;;;;27.73;42.85;154635.34;1726341;82;21486;-58
2022/06/20 10:10:55;;;;;;;5.72;1.20;;;;;;;27.71;42.46;154628.81;1722650;82;21762;-57
2022/06/20 10:13:34;;;;;;;2.70;1.40;;;;;;;27.68;41.89;154622.23;1730897;82;21430;-56
2022/06/20 10:16:10;;;;;;;1.45;1.35;;;;;;;27.70;41.51;154626.19;1731761;82;20937;-57
2022/06/20 10:18:47;;;;;;;1.92;1.57;;;;;;;27.73;42.30;154635.34;1730697;82;21088;-56
2022/06/20 10:21:38;;;;;;;1.55;1.30;;;;;;;27.69;41.98;154624.86;1731591;82;21001;-57
2022/06/20 10:24:28;;;;;;;1.50;1.22;;;;;;;27.65;42.03;154614.38;1734301;81;21184;-57
2022/06/20 10:27:37;;;;;;;3.37;1.32;;;;;;;27.65;41.56;154614.38;1733406;81;21406;-56
2022/06/20 10:30:12;;;;;;;1.62;1.42;;;;;;;27.66;41.21;154615.70;1721362;81;21384;-56
2022/06/20 10:33:22;;;;;;;1.85;1.50;;;;;;;27.64;41.05;154611.75;1719653;82;21484;-57
2022/06/20 10:36:16;;;;;;;1.80;1.45;;;;;;;27.60;41.16;154601.25;1715944;83;21090;-56
2022/06/20 10:39:09;;;;;;;2.55;1.40;;;;;;;27.54;42.45;154585.53;1716611;82;21386;-57
2022/06/20 10:42:04;;;;;;;3.25;1.92;;;;;;;27.50;41.75;154574.94;1721304;82;21052;-57
2022/06/20 10:45:04;;;;;;;1.45;1.35;;;;;;;27.38;41.99;154546.11;1719251;82;21027;-57
2022/06/20 10:47:42;;;;;;;2.77;1.30;;;;;;;27.30;42.44;154526.44;1664744;85;21112;-56
2022/06/20 10:50:18;;;;;;;2.80;1.27;;;;;;;27.33;43.01;154531.67;1713702;83;21344;-56
2022/06/20 10:52:57;;;;;;;2.17;1.47;;;;;;;27.36;43.46;154540.88;1730628;81;21097;-57
2022/06/20 10:55:41;;;;;;;2.20;1.80;;;;;;;27.39;42.86;154548.73;1731314;82;21556;-57
2022/06/20 10:58:34;;;;;;;2.45;1.47;;;;;;;27.39;43.39;154548.73;1730804;82;21463;-58
2022/06/20 11:01:37;;;;;;;3.37;1.57;;;;;;;27.37;43.78;154543.50;1704452;82;21060;-57
2022/06/20 11:04:31;;;;;;;4.25;1.50;;;;;;;27.40;44.39;154551.34;1666927;86;21061;-57
2022/06/20 11:07:28;;;;;;;1.47;1.37;;;;;;;27.42;44.45;154556.59;1679602;83;21290;-58
2022/06/20 11:10:13;;;;;;;2.95;1.50;;;;;;;27.43;42.76;154559.22;1725823;82;20957;-58
2022/06/20 11:12:55;;;;;;;2.43;1.47;;;;;;;27.40;43.60;154550.02;1730461;81;21064;-58
2022/06/20 11:15:30;;;;;;;1.60;1.50;;;;;;;27.35;44.29;154538.25;1720279;82;21053;-56
2022/06/20 11:18:11;;;;;;;3.58;1.37;;;;;;;27.35;43.93;154538.25;1726251;82;21118;-56
2022/06/20 11:20:46;;;;;;;4.72;4.22;;;;;;;27.37;43.81;154542.16;1677392;84;21145;-57
2022/06/20 11:23:26;;;;;;;2.55;1.90;;;;;;;27.36;43.44;154540.88;1730071;82;21830;-57
2022/06/20 11:26:10;;;;;;;4.60;1.92;;;;;;;27.34;43.40;154535.63;1725415;83;21486;-58
2022/06/20 11:29:07;;;;;;;3.85;1.70;;;;;;;27.30;43.09;154525.09;1730578;82;21627;-57
2022/06/20 11:32:04;;;;;;;1.42;1.32;;;;;;;27.27;43.19;154518.56;1726026;82;21048;-58
2022/06/20 11:35:08;;;;;;;3.37;1.52;;;;;;;27.26;42.48;154514.61;1730105;82;21288;-58
2022/06/20 11:37:59;;;;;;;2.05;1.42;;;;;;;27.25;42.83;154513.31;1731060;82;20984;-57
2022/06/20 11:40:41;;;;;;;3.35;1.55;;;;;;;27.22;43.91;154504.13;1671505;84;21068;-56
2022/06/20 11:43:50;;;;;;;1.70;1.60;;;;;;;27.16;43.82;154491.03;1670587;85;21593;-57
2022/06/20 11:46:40;;;;;;;4.17;1.55;;;;;;;27.11;43.42;154477.91;1663833;84;21112;-56
2022/06/20 11:49:33;;;;;;;3.17;1.50;;;;;;;27.04;44.58;154459.52;1656732;85;21233;-57
2022/06/20 11:52:22;;;;;;;6.85;1.70;;;;;;;27.02;45.40;154454.28;1689475;83;21024;-56
2022/06/20 11:55:08;;;;;;;2.70;1.40;;;;;;;27.06;45.38;154463.47;1723728;82;21513;-56
2022/06/20 11:58:12;;;;;;;1.70;1.60;;;;;;;27.16;44.44;154489.69;1706058;81;21212;-57
2022/06/20 12:01:00;;;;;;;1.75;1.65;;;;;;;27.16;44.44;154489.69;1694429;82;21815;-57
2022/06/20 12:03:54;;;;;;;2.70;1.30;;;;;;;27.20;44.87;154498.88;1705261;83;21531;-57
2022/06/20 12:06:38;;;;;;;4.03;1.70;;;;;;;27.17;43.85;154493.64;1705006;82;21704;-57
2022/06/20 12:09:46;;;;;;;1.75;1.60;;;;;;;27.21;44.00;154501.50;1730135;82;21003;-56
2022/06/20 12:12:38;;;;;;;2.22;1.60;;;;;;;27.17;44.44;154492.31;1717370;82;21048;-57
2022/06/20 12:15:30;;;;;;;4.03;1.77;;;;;;;27.11;44.44;154477.91;1693284;84;21045;-56
2022/06/20 12:23:18;;;;;;;5.67;1.62;;;;;;;27.07;45.31;154467.39;1730949;82;21932;-57
2022/06/20 12:24:07;;;;;;;3.00;1.82;;;;;;;26.96;47.18;154439.84;1730006;82;20922;-58
2022/06/20 12:26:39;;;;;;;2.17;1.37;;;;;;;26.95;46.89;154437.22;1729949;83;21119;-57
2022/06/20 12:29:14;;;;;;;2.12;1.60;;;;;;;26.96;46.50;154438.56;1733053;82;21063;-58
2022/06/20 12:31:44;;;;;;;2.22;1.47;;;;;;;26.98;47.10;154443.80;1735484;82;21563;-57
2022/06/20 12:34:50;;;;;;;3.47;1.75;;;;;;;27.07;46.83;154467.39;1740493;82;21309;-57
2022/06/20 12:37:34;;;;;;;3.52;1.82;;;;;;;27.17;46.84;154493.64;1724031;82;21005;-56
2022/06/20 12:40:22;;;;;;;1.60;1.50;;;;;;;27.35;47.33;154538.25;1718274;82;21076;-56